• Join FlightAware (Why Join?)
  • Login
  • US Flag 
01:40PM EDT


 

Airport Tracker/Info


-or-


 

Live Flight TrackerFlight Track Log ✈ SWA1303 ✈ 06-Apr-2013 ✈ KTPA - KSTL

Flight Track Log - Related Links

Times and Time Zones

All times are in EDT time to prevent confusion due to time zone crossing. See the SWA1303 flight status page for this flight to view local times or setup timezone preferences in your user account.

Time Position Orientation Groundspeed Altitude Reporting Facility
EDT Latitude Longitude Course Direction KTS MPH feet Rate Location/Type
04:25PM 28.0000 -82.5333 360° North 163 188 900  Level Tampa TRACON
04:26PM 28.0500 -82.5333 360° North 224 258 3,200 2,640 Climbing Tampa TRACON
04:28PM 28.1683 -82.6194 327° Northwest 297 342 8,600 2,640 Climbing Jacksonville Center
04:29PM 28.2375 -82.6664 329° Northwest 292 336 10,900 2,640 Climbing Jacksonville Center
04:30PM 28.3147 -82.7206 328° Northwest 307 353 13,900 2,880 Climbing Jacksonville Center
04:31PM 28.3939 -82.7769 328° Northwest 326 375 16,700 2,400 Climbing Jacksonville Center
04:32PM 28.4858 -82.8028 346° North 326 375 18,800 2,100 Climbing Jacksonville Center
04:33PM 28.5861 -82.8169 353° North 339 390 20,900 2,100 Climbing Jacksonville Center
04:34PM 28.6947 -82.8381 350° North 350 403 23,100 1,680 Climbing Jacksonville Center
04:35PM 28.7969 -82.8642 347° North 364 419 24,300 960 Climbing Jacksonville Center
04:36PM 28.9117 -82.8925 348° North 384 442 25,100 1,140 Climbing Jacksonville Center
04:37PM 29.0139 -82.9592 330° Northwest 411 473 26,600 1,740 Climbing Jacksonville Center
04:38PM 29.1100 -83.0328 326° Northwest 411 473 28,600 1,920 Climbing Jacksonville Center
04:39PM 29.2017 -83.0994 328° Northwest 404 465 30,500 1,680 Climbing Jacksonville Center
04:40PM 29.2933 -83.1664 328° Northwest 399 459 32,000 1,200 Climbing Jacksonville Center
04:41PM 29.3872 -83.2333 328° Northwest 393 452 32,900 1,200 Climbing Jacksonville Center
04:42PM 29.4767 -83.3006 327° Northwest 393 452 34,400 1,260 Climbing Jacksonville Center
04:43PM 29.5683 -83.3653 328° Northwest 393 452 35,500 780 Climbing Jacksonville Center
04:44PM 29.6558 -83.4303 327° Northwest 387 445 36,000 240 Climbing Jacksonville Center
04:45PM 29.7472 -83.4978 327° Northwest 387 445 36,000  Level Jacksonville Center
04:46PM 29.8283 -83.5558 328° Northwest 392 451 36,000  Level Jacksonville Center
04:47PM 29.9178 -83.6236 327° Northwest 392 451 36,000  Level Jacksonville Center
04:48PM 30.0094 -83.6889 328° Northwest 392 451 36,000  Level Jacksonville Center
04:49PM 30.0986 -83.7544 328° Northwest 392 451 36,000  Level Jacksonville Center
04:50PM 30.1900 -83.8203 328° Northwest 392 451 36,000  Level Jacksonville Center
04:51PM 30.2794 -83.8883 327° Northwest 392 451 36,000  Level Jacksonville Center
04:52PM 30.3686 -83.9544 327° Northwest 392 451 36,000  Level Jacksonville Center
04:53PM 30.4600 -84.0203 328° Northwest 392 451 36,000  Level Jacksonville Center
04:54PM 30.5469 -84.0867 327° Northwest 392 451 36,000  Level Jacksonville Center
04:55PM 30.6339 -84.1553 326° Northwest 386 444 36,000  Level Jacksonville Center
04:56PM 30.7231 -84.2192 328° Northwest 386 444 36,000  Level Jacksonville Center
04:57PM 30.8122 -84.2883 326° Northwest 386 444 36,000  Level Jacksonville Center
04:58PM 30.9033 -84.3575 327° Northwest 386 444 36,000  Level Jacksonville Center
04:59PM 30.9944 -84.4242 328° Northwest 386 444 36,000  Level Jacksonville Center
05:00PM 31.0811 -84.4911 327° Northwest 386 444 36,000  Level Jacksonville Center
05:02PM 31.2464 -84.6169 327° Northwest 393 452 36,000  Level Atlanta Center
05:03PM 31.3381 -84.6881 326° Northwest 393 452 36,000  Level Atlanta Center
05:04PM 31.4253 -84.7544 327° Northwest 393 452 36,000  Level Atlanta Center
05:05PM 31.5167 -84.8233 327° Northwest 393 452 36,000  Level Atlanta Center
05:06PM 31.6058 -84.8947 326° Northwest 393 452 36,000  Level Atlanta Center
05:07PM 31.6972 -84.9614 328° Northwest 393 452 36,000  Level Atlanta Center
05:08PM 31.7886 -85.0333 326° Northwest 393 452 36,000  Level Atlanta Center
05:09PM 31.8778 -85.1028 327° Northwest 393 452 36,000  Level Atlanta Center
05:10PM 31.9689 -85.1722 327° Northwest 393 452 36,000  Level Atlanta Center
05:11PM 32.0600 -85.2397 328° Northwest 393 452 36,000  Level Atlanta Center
05:12PM 32.1533 -85.3119 327° Northwest 393 452 36,000  Level Atlanta Center
05:13PM 32.2464 -85.3847 327° Northwest 393 452 36,000  Level Atlanta Center
05:14PM 32.3375 -85.4547 327° Northwest 393 452 36,000  Level Atlanta Center
05:15PM 32.4286 -85.5275 326° Northwest 393 452 36,000  Level Atlanta Center
05:16PM 32.5217 -85.5981 327° Northwest 393 452 36,000  Level Atlanta Center
05:17PM 32.6144 -85.6739 325° Northwest 398 458 36,000  Level Atlanta Center
05:18PM 32.7053 -85.7447 327° Northwest 393 452 36,000  Level Atlanta Center
05:19PM 32.7964 -85.8156 327° Northwest 393 452 36,000  Level Atlanta Center
05:20PM 32.8789 -85.8817 326° Northwest 393 452 36,000  Level Atlanta Center
05:21PM 32.9694 -85.9553 326° Northwest 393 452 36,000  Level Atlanta Center
05:22PM 33.0581 -86.0292 325° Northwest 393 452 36,000  Level Atlanta Center
05:23PM 33.1489 -86.0956 329° Northwest 393 452 36,000  Level Atlanta Center
05:24PM 33.2414 -86.1747 324° Northwest 393 452 36,000  Level Atlanta Center
05:25PM 33.3319 -86.2417 328° Northwest 393 452 36,000  Level Atlanta Center
05:26PM 33.4225 -86.3186 325° Northwest 393 452 36,000  Level Atlanta Center
05:27PM 33.5150 -86.3908 327° Northwest 393 452 36,000  Level Atlanta Center
05:28PM 33.6117 -86.4708 325° Northwest 384 442 36,000  Level Atlanta Center
05:29PM 33.7000 -86.5458 325° Northwest 384 442 36,000  Level Atlanta Center
05:30PM 33.8444 -86.6633 326° Northwest 393 452 36,000  Level Memphis Center
05:31PM 33.9361 -86.7369 326° Northwest 393 452 36,000  Level Memphis Center
05:32PM 34.0261 -86.8108 326° Northwest 393 452 36,000  Level Memphis Center
05:33PM 34.1178 -86.8875 325° Northwest 393 452 36,000  Level Memphis Center
05:34PM 34.2094 -86.9564 328° Northwest 387 445 36,000  Level Memphis Center
05:35PM 34.3033 -87.0333 326° Northwest 399 459 36,000  Level Memphis Center
05:36PM 34.3953 -87.1128 325° Northwest 405 466 36,000  Level Memphis Center
05:37PM 34.4889 -87.1872 327° Northwest 405 466 36,000  Level Memphis Center
05:38PM 34.5828 -87.2694 324° Northwest 410 472 36,000  Level Memphis Center
05:39PM 34.6617 -87.3347 326° Northwest 410 472 36,000  Level Memphis Center
05:40PM 34.7553 -87.4122 326° Northwest 410 472 36,000  Level Memphis Center
05:41PM 34.8489 -87.4925 325° Northwest 410 472 36,000  Level Memphis Center
05:42PM 34.9406 -87.5681 326° Northwest 410 472 36,000  Level Memphis Center
05:43PM 35.0342 -87.6511 324° Northwest 410 472 36,000  Level Memphis Center
05:44PM 35.1425 -87.7442 325° Northwest 410 472 36,000  Level Memphis Center
05:45PM 35.2336 -87.8200 326° Northwest 423 487 36,000  Level Memphis Center
05:46PM 35.3231 -87.8986 324° Northwest 411 473 36,000  Level Memphis Center
05:47PM 35.4100 -87.9725 325° Northwest 403 464 36,000  Level Memphis Center
05:48PM 35.5011 -88.0542 324° Northwest 392 451 36,000  Level Memphis Center
05:49PM 35.5922 -88.1308 326° Northwest 392 451 36,000  Level Memphis Center
05:50PM 35.6789 -88.1975 328° Northwest 397 457 36,000  Level Memphis Center
05:51PM 35.7700 -88.2769 325° Northwest 403 464 36,000  Level Memphis Center
05:52PM 35.8589 -88.3542 325° Northwest 403 464 36,000  Level Memphis Center
05:53PM 35.9497 -88.4339 325° Northwest 403 464 36,000  Level Memphis Center
05:54PM 36.0406 -88.5139 325° Northwest 403 464 36,000  Level Memphis Center
05:55PM 36.1292 -88.5917 325° Northwest 398 458 36,000  Level Memphis Center
05:56PM 36.2181 -88.6694 325° Northwest 398 458 36,000  Level Memphis Center
05:57PM 36.3067 -88.7475 325° Northwest 398 458 36,000  Level Memphis Center
05:58PM 36.3972 -88.8256 325° Northwest 393 452 36,000 -540 Level Memphis Center
05:59PM 36.4858 -88.9064 324° Northwest 393 452 35,000 -1,020 Descending Memphis Center
06:00PM 36.5742 -88.9822 325° Northwest 388 447 34,000 -540 Descending Memphis Center
06:01PM 36.6667 -89.0661 324° Northwest 388 447 34,000  Level Memphis Center
06:02PM 36.7531 -89.1425 325° Northwest 388 447 34,000  Level Memphis Center
06:03PM 36.8392 -89.2242 323° Northwest 388 447 34,000 -480 Level Memphis Center
06:05PM 36.9761 -89.3447 325° Northwest 382 440 32,700 -1,320 Descending Kansas City Center
06:06PM 37.0583 -89.4192 324° Northwest 375 432 30,400 -2,400 Descending Kansas City Center
06:07PM 37.1533 -89.5069 324° Northwest 363 418 27,800 -2,040 Descending Kansas City Center
06:08PM 37.2311 -89.5750 325° Northwest 352 405 26,200 -900 Descending Kansas City Center
06:09PM 37.3269 -89.6267 337° Northwest 368 423 26,000 -120 Descending Kansas City Center
06:10PM 37.4258 -89.6783 337° Northwest 378 435 26,000  Level Kansas City Center
06:11PM 37.5256 -89.7331 336° Northwest 385 443 26,000  Level Kansas City Center
06:12PM 37.6272 -89.7908 336° Northwest 393 452 26,000  Level Kansas City Center
06:13PM 37.7297 -89.8478 336° Northwest 399 459 26,000 -420 Level Kansas City Center
06:14PM 37.8306 -89.9033 336° Northwest 398 458 25,200 -1,500 Descending Kansas City Center
06:15PM 37.8894 -89.8789 18° North 384 442 23,800 -2,520 Descending FAA TRACON SMA TRACON (SMA)
06:15PM 37.9200 -89.8953 337° Northwest 388 447 23,100 -2,400 Descending FAA TRACON SMA TRACON (SMA)
06:15PM 37.9586 -89.9161 337° Northwest 389 448 22,200 -2,400 Descending FAA TRACON SMA TRACON (SMA)
06:16PM 37.9889 -89.9342 335° Northwest 389 448 21,500 -2,100 Descending FAA TRACON SMA TRACON (SMA)
06:16PM 38.0183 -89.9517 335° Northwest 384 442 20,800 -2,160 Descending FAA TRACON SMA TRACON (SMA)
06:16PM 38.0475 -89.9689 335° Northwest 378 435 20,100 -2,340 Descending FAA TRACON SMA TRACON (SMA)
06:17PM 38.0836 -89.9881 337° Northwest 367 422 19,300 -2,280 Descending FAA TRACON SMA TRACON (SMA)
06:17PM 38.1117 -90.0044 335° Northwest 361 415 18,600 -2,280 Descending FAA TRACON SMA TRACON (SMA)
06:17PM 38.1392 -90.0203 336° Northwest 354 407 17,800 -2,400 Descending FAA TRACON SMA TRACON (SMA)
06:18PM 38.1736 -90.0397 336° Northwest 350 403 17,000 -2,220 Descending FAA TRACON SMA TRACON (SMA)
06:18PM 38.2003 -90.0553 335° Northwest 346 398 16,300 -1,980 Descending FAA TRACON SMA TRACON (SMA)
06:18PM 38.2275 -90.0694 338° Northwest 343 395 15,700 -1,980 Descending FAA TRACON SMA TRACON (SMA)
06:19PM 38.2614 -90.0894 335° Northwest 348 400 15,000 -1,200 Descending FAA TRACON SMA TRACON (SMA)
06:19PM 38.2881 -90.1033 338° Northwest 340 391 14,900 -1,080 Descending FAA TRACON SMA TRACON (SMA)
06:19PM 38.3147 -90.1181 337° Northwest 338 389 14,300 -2,160 Descending FAA TRACON SMA TRACON (SMA)
06:20PM 38.3481 -90.1381 335° Northwest 343 395 13,500 -2,100 Descending FAA TRACON SMA TRACON (SMA)
06:20PM 38.3744 -90.1533 336° Northwest 340 391 12,900 -1,800 Descending FAA TRACON SMA TRACON (SMA)
06:20PM 38.4008 -90.1681 336° Northwest 337 388 12,300 -1,980 Descending FAA TRACON SMA TRACON (SMA)
06:21PM 38.4333 -90.1867 336° Northwest 334 384 11,600 -1,980 Descending FAA TRACON SMA TRACON (SMA)
06:21PM 38.4594 -90.2014 336° Northwest 332 382 11,000 -1,740 Descending FAA TRACON SMA TRACON (SMA)
06:21PM 38.4850 -90.2153 337° Northwest 328 377 10,500 -1,260 Descending FAA TRACON SMA TRACON (SMA)
06:22PM 38.5156 -90.2331 336° Northwest 317 365 10,200 -780 Descending FAA TRACON SMA TRACON (SMA)
06:22PM 38.5389 -90.2461 336° Northwest 301 346 10,000 -900 Descending FAA TRACON SMA TRACON (SMA)
06:22PM 38.5617 -90.2594 335° Northwest 291 335 9,600 -1,500 Descending FAA TRACON SMA TRACON (SMA)
06:23PM 38.5900 -90.2753 336° Northwest 287 330 9,000 -1,620 Descending FAA TRACON SMA TRACON (SMA)
06:23PM 38.6122 -90.2875 337° Northwest 286 329 8,500 -1,200 Descending FAA TRACON SMA TRACON (SMA)
06:23PM 38.6339 -90.3011 334° Northwest 282 325 8,200 -780 Descending FAA TRACON SMA TRACON (SMA)
06:24PM 38.6511 -90.3272 310° West 262 302 8,000 -660 Descending FAA TRACON SMA TRACON (SMA)
06:24PM 38.6614 -90.3494 301° West 239 275 7,800 -900 Descending FAA TRACON SMA TRACON (SMA)
06:24PM 38.6744 -90.3756 303° West 228 262 7,400 -1,140 Descending FAA TRACON SMA TRACON (SMA)
06:25PM 38.6844 -90.3967 301° West 225 259 7,000 -1,320 Descending FAA TRACON SMA TRACON (SMA)
06:25PM 38.6950 -90.4169 304° West 222 255 6,600 -1,440 Descending FAA TRACON SMA TRACON (SMA)
06:25PM 38.7053 -90.4375 303° West 222 255 6,100 -1,380 Descending FAA TRACON SMA TRACON (SMA)
06:26PM 38.7158 -90.4578 304° West 222 255 5,700 -1,260 Descending FAA TRACON SMA TRACON (SMA)
06:26PM 38.7289 -90.4831 304° West 220 253 5,300 -1,380 Descending FAA TRACON SMA TRACON (SMA)
06:26PM 38.7431 -90.4997 317° Northwest 231 266 4,800 -1,500 Descending FAA TRACON SMA TRACON (SMA)
06:27PM 38.7644 -90.5003 359° North 256 295 4,300 -1,680 Descending FAA TRACON SMA TRACON (SMA)
06:27PM 38.7897 -90.4856 24° Northeast 263 303 3,700 -1,380 Descending FAA TRACON SMA TRACON (SMA)
06:27PM 38.8092 -90.4719 29° Northeast 259 298 3,400 -900 Descending FAA TRACON SMA TRACON (SMA)
06:28PM 38.8172 -90.4494 65° Northeast 251 289 3,100 -1,080 Descending FAA TRACON SMA TRACON (SMA)
06:28PM 38.8086 -90.4272 116° Southeast 206 237 2,700 -900 Descending FAA TRACON SMA TRACON (SMA)
06:28PM 38.7994 -90.4136 131° Southeast 168 193 2,500 -900 Descending FAA TRACON SMA TRACON (SMA)
06:29PM 38.7900 -90.4014 135° Southeast 155 178 2,100 -1,200 Descending FAA TRACON SMA TRACON (SMA)
06:29PM 38.7800 -90.3858 130° Southeast 148 170 1,700 -900 Descending FAA TRACON SMA TRACON (SMA)
06:29PM 38.7739 -90.3736 123° Southeast 137 158 1,500 -480 Descending FAA TRACON SMA TRACON (SMA)
06:30PM 38.7675 -90.3614 124° Southeast 133 153 1,400 -600 Descending FAA TRACON SMA TRACON (SMA)
06:30PM 38.7592 -90.3456 124° Southeast 135 155 1,100 -900 Descending FAA TRACON SMA TRACON (SMA)
06:30PM 38.7531 -90.3331 122° Southeast 137 158 800 -660 Descending FAA TRACON SMA TRACON (SMA)
06:31PM 38.7500 -90.3264 120° Southeast 138 159 700 -360 Descending FAA TRACON SMA TRACON (SMA)